Time;durP1;ratioP1;P1;durP2;ratioP2;P2;SDS_P1;SDS_P2;PMS_P1;PMS_P2;Temp;Humidity;BMP_temperature;BMP_pressure;BME280_temperature;BME280_humidity;BME280_pressure;Samples;Min_cycle;Max_cycle;Signal;HPM_P1;HPM_P2
2024/02/04 00:01:44;;;;;;;4.30;3.90;;;7.20;99.90;;;;;;485145;245;28123;-71
2024/02/04 00:03:45;;;;;;;3.60;3.30;;;7.20;99.90;;;;;;485132;245;28345;-75
2024/02/04 00:05:46;;;;;;;4.87;3.57;;;7.20;99.90;;;;;;485035;245;28038;-71
2024/02/04 00:07:48;;;;;;;5.20;4.70;;;7.20;99.90;;;;;;485017;245;27689;-72
2024/02/04 00:09:49;;;;;;;4.40;4.10;;;7.20;99.90;;;;;;485068;245;28063;-72
2024/02/04 00:11:51;;;;;;;4.83;4.10;;;7.20;99.90;;;;;;485114;245;28096;-71
2024/02/04 00:13:51;;;;;;;4.37;4.07;;;7.20;99.90;;;;;;485071;245;28566;-73
2024/02/04 00:15:54;;;;;;;4.25;3.95;;;7.10;99.90;;;;;;485052;245;27594;-71
2024/02/04 00:17:54;;;;;;;4.30;3.90;;;7.20;99.90;;;;;;484989;245;27614;-71
2024/02/04 00:19:55;;;;;;;4.50;4.10;;;7.10;99.90;;;;;;485068;245;27971;-71
2024/02/04 00:21:56;;;;;;;4.43;4.03;;;7.10;99.90;;;;;;485096;245;28170;-72
2024/02/04 00:23:58;;;;;;;4.27;3.87;;;7.10;99.90;;;;;;485112;245;28037;-71
2024/02/04 00:25:59;;;;;;;3.80;3.60;;;7.20;99.90;;;;;;485052;245;28555;-72
2024/02/04 00:28:00;;;;;;;4.07;3.78;;;7.20;99.90;;;;;;485038;245;29378;-72
2024/02/04 00:30:01;;;;;;;4.50;4.10;;;7.10;99.90;;;;;;485107;245;27542;-74
2024/02/04 00:32:03;;;;;;;4.00;3.70;;;7.20;99.90;;;;;;485058;245;27751;-71
2024/02/04 00:34:05;;;;;;;4.27;3.87;;;7.10;99.90;;;;;;485063;245;27962;-71
2024/02/04 00:36:05;;;;;;;4.40;4.00;;;7.10;99.90;;;;;;484880;245;28832;-71
2024/02/04 00:38:06;;;;;;;4.03;3.63;;;7.10;99.90;;;;;;485058;245;27854;-72
2024/02/04 00:40:08;;;;;;;4.47;4.07;;;7.10;99.90;;;;;;485134;245;28025;-72
2024/02/04 00:42:09;;;;;;;4.30;4.00;;;7.10;99.90;;;;;;484954;245;28934;-71
2024/02/04 00:44:10;;;;;;;3.97;3.63;;;7.20;99.90;;;;;;485109;245;27870;-72
2024/02/04 00:46:11;;;;;;;4.17;3.40;;;7.10;99.90;;;;;;485022;245;28101;-71
2024/02/04 00:48:13;;;;;;;4.50;3.63;;;7.10;99.90;;;;;;485114;245;27762;-71
2024/02/04 00:50:14;;;;;;;6.30;3.50;;;7.10;99.90;;;;;;485103;245;27763;-73
2024/02/04 00:52:15;;;;;;;4.17;3.77;;;7.10;99.90;;;;;;485044;245;28067;-71
2024/02/04 00:54:16;;;;;;;3.37;3.07;;;7.10;99.90;;;;;;485086;245;28719;-72
2024/02/04 00:56:18;;;;;;;3.93;3.63;;;7.10;99.90;;;;;;485103;245;28413;-71
2024/02/04 00:58:19;;;;;;;4.03;3.73;;;7.10;99.90;;;;;;485093;245;28909;-71
2024/02/04 01:00:20;;;;;;;4.60;4.03;;;7.10;99.90;;;;;;485088;245;28112;-72
2024/02/04 01:02:21;;;;;;;4.20;3.80;;;7.10;99.90;;;;;;485023;245;28597;-71
2024/02/04 01:04:23;;;;;;;4.73;4.30;;;7.10;99.90;;;;;;485068;245;27654;-71
2024/02/04 01:06:24;;;;;;;4.00;3.70;;;7.10;99.90;;;;;;485091;245;28026;-74
2024/02/04 01:08:25;;;;;;;5.13;4.33;;;7.10;99.90;;;;;;485058;245;27863;-71
2024/02/04 01:10:26;;;;;;;4.50;4.10;;;7.10;99.90;;;;;;485076;245;27933;-72
2024/02/04 01:12:28;;;;;;;4.57;4.17;;;7.10;99.90;;;;;;485067;245;28160;-72
2024/02/04 01:14:29;;;;;;;4.30;3.90;;;7.10;99.90;;;;;;485042;245;28878;-71
2024/02/04 01:16:30;;;;;;;4.50;4.10;;;7.10;99.90;;;;;;485052;245;28009;-72
2024/02/04 01:18:32;;;;;;;4.57;4.17;;;7.10;99.90;;;;;;485076;245;27994;-72
2024/02/04 01:20:33;;;;;;;4.63;4.17;;;7.10;99.90;;;;;;485049;245;28208;-72
2024/02/04 01:22:34;;;;;;;3.93;3.63;;;7.10;99.90;;;;;;485039;245;28229;-71
2024/02/04 01:24:35;;;;;;;4.47;4.07;;;7.00;99.90;;;;;;485078;245;28429;-71
2024/02/04 01:26:36;;;;;;;3.83;3.53;;;7.00;99.90;;;;;;485046;245;28599;-72
2024/02/04 01:28:38;;;;;;;3.78;3.40;;;7.10;99.90;;;;;;485075;245;28337;-71
2024/02/04 01:30:39;;;;;;;5.00;3.80;;;7.10;99.90;;;;;;485044;245;27542;-71
2024/02/04 01:32:40;;;;;;;3.67;3.37;;;7.10;99.90;;;;;;485054;245;27899;-72
2024/02/04 01:34:41;;;;;;;3.30;3.00;;;7.10;99.90;;;;;;485127;245;27865;-71
2024/02/04 01:36:43;;;;;;;4.23;3.73;;;7.10;99.90;;;;;;485040;245;28080;-71
2024/02/04 01:38:44;;;;;;;3.97;3.60;;;7.10;99.90;;;;;;485059;245;28839;-71
2024/02/04 01:40:46;;;;;;;4.03;3.20;;;7.00;99.90;;;;;;485061;245;28120;-72
2024/02/04 01:42:46;;;;;;;4.23;3.70;;;7.00;99.90;;;;;;485074;245;28715;-74
2024/02/04 01:44:48;;;;;;;4.00;3.60;;;7.00;99.90;;;;;;485057;245;28836;-72
2024/02/04 01:46:49;;;;;;;3.87;3.47;;;7.00;99.90;;;;;;485023;245;28104;-72
2024/02/04 01:48:50;;;;;;;2.93;2.73;;;7.00;99.90;;;;;;485056;245;28502;-71
2024/02/04 01:50:51;;;;;;;3.70;3.40;;;7.10;99.90;;;;;;485059;245;28632;-72
2024/02/04 01:52:53;;;;;;;3.17;2.80;;;7.00;99.90;;;;;;485090;245;28590;-74
2024/02/04 01:54:54;;;;;;;4.47;3.95;;;7.00;99.90;;;;;;485070;245;29425;-71
2024/02/04 01:56:55;;;;;;;3.93;3.37;;;7.00;99.90;;;;;;485029;245;27536;-72
2024/02/04 01:58:56;;;;;;;5.97;3.77;;;7.00;99.90;;;;;;485058;245;27836;-71
2024/02/04 02:00:58;;;;;;;3.80;3.50;;;7.00;99.90;;;;;;485080;245;27650;-72
2024/02/04 02:02:59;;;;;;;4.10;3.70;;;7.00;99.90;;;;;;485043;245;27783;-72
2024/02/04 02:05:00;;;;;;;4.83;3.90;;;7.00;99.90;;;;;;485081;245;28048;-71
2024/02/04 02:07:02;;;;;;;5.83;3.73;;;7.00;99.90;;;;;;485014;245;27784;-71
2024/02/04 02:09:03;;;;;;;4.30;3.90;;;7.00;99.90;;;;;;485061;245;28006;-72
2024/02/04 02:11:04;;;;;;;3.67;3.37;;;7.00;99.90;;;;;;485056;245;27878;-72
2024/02/04 02:13:05;;;;;;;4.00;3.60;;;7.00;99.90;;;;;;485077;245;27641;-71
2024/02/04 02:15:06;;;;;;;4.17;3.77;;;7.00;99.90;;;;;;485032;245;27964;-71
2024/02/04 02:17:08;;;;;;;4.00;3.60;;;7.00;99.90;;;;;;485036;245;28868;-71
2024/02/04 02:19:09;;;;;;;5.30;4.18;;;7.00;99.90;;;;;;485112;245;27743;-74
2024/02/04 02:21:10;;;;;;;5.10;4.60;;;7.00;99.90;;;;;;485097;245;27938;-72
2024/02/04 02:23:12;;;;;;;5.50;3.93;;;7.00;99.90;;;;;;485096;245;28530;-71
2024/02/04 02:25:13;;;;;;;4.83;4.37;;;7.00;99.90;;;;;;485130;245;28128;-71
2024/02/04 02:27:14;;;;;;;4.70;3.80;;;7.00;99.90;;;;;;485061;245;28551;-71
2024/02/04 02:29:15;;;;;;;4.80;4.00;;;7.00;99.90;;;;;;485099;245;28070;-73
2024/02/04 02:31:16;;;;;;;4.20;3.80;;;7.00;99.90;;;;;;485112;245;27702;-72
2024/02/04 02:33:18;;;;;;;6.50;4.07;;;7.00;99.90;;;;;;485088;245;27622;-72
2024/02/04 02:35:19;;;;;;;4.80;4.13;;;7.00;99.90;;;;;;485070;245;28045;-71
2024/02/04 02:37:21;;;;;;;3.97;3.60;;;7.00;99.90;;;;;;485086;245;27714;-72
2024/02/04 02:39:21;;;;;;;3.45;3.15;;;7.00;99.90;;;;;;485042;245;27565;-73
2024/02/04 02:41:23;;;;;;;3.93;3.63;;;6.90;99.90;;;;;;485133;245;27494;-71
2024/02/04 02:43:24;;;;;;;3.80;3.40;;;6.90;99.90;;;;;;485101;245;27795;-72
2024/02/04 02:45:25;;;;;;;3.40;3.10;;;6.90;99.90;;;;;;485078;245;28028;-71
2024/02/04 02:47:27;;;;;;;3.57;3.27;;;6.90;99.90;;;;;;485081;245;28099;-72
2024/02/04 02:49:28;;;;;;;3.93;3.53;;;6.90;99.90;;;;;;485034;245;28224;-72
2024/02/04 02:51:29;;;;;;;3.63;2.97;;;6.90;99.90;;;;;;485094;245;28398;-71
2024/02/04 02:53:30;;;;;;;3.97;3.50;;;6.90;99.90;;;;;;485056;245;28488;-71
2024/02/04 02:55:31;;;;;;;4.00;3.60;;;6.90;99.90;;;;;;485093;245;28580;-73
2024/02/04 02:57:33;;;;;;;3.22;2.92;;;6.90;99.90;;;;;;485076;245;28016;-72
2024/02/04 02:59:34;;;;;;;4.10;3.70;;;6.90;99.90;;;;;;485058;245;27533;-72
2024/02/04 03:01:35;;;;;;;3.90;3.55;;;6.90;99.90;;;;;;485078;245;28067;-71
2024/02/04 03:03:37;;;;;;;4.73;4.23;;;6.90;99.90;;;;;;485111;245;27472;-72
2024/02/04 03:05:38;;;;;;;3.13;2.93;;;6.90;99.90;;;;;;485064;245;27858;-72
2024/02/04 03:07:39;;;;;;;3.63;3.33;;;6.90;99.90;;;;;;485077;245;27611;-71
2024/02/04 03:09:40;;;;;;;4.20;3.80;;;6.90;99.90;;;;;;485080;245;27998;-72
2024/02/04 03:11:42;;;;;;;4.60;4.13;;;6.90;99.90;;;;;;484892;245;28119;-73
2024/02/04 03:13:43;;;;;;;4.23;3.83;;;6.90;99.90;;;;;;484919;245;28609;-72
2024/02/04 03:15:44;;;;;;;3.50;3.20;;;6.90;99.90;;;;;;485051;245;28459;-71
2024/02/04 03:17:45;;;;;;;3.73;3.43;;;6.90;99.90;;;;;;485069;245;29084;-71
2024/02/04 03:19:47;;;;;;;4.87;3.67;;;6.90;99.90;;;;;;485094;245;28230;-72
2024/02/04 03:21:48;;;;;;;5.80;4.00;;;6.90;99.90;;;;;;485046;245;28001;-74
2024/02/04 03:23:49;;;;;;;3.67;3.37;;;6.90;99.90;;;;;;485105;245;27608;-71
2024/02/04 03:25:50;;;;;;;3.57;3.27;;;6.90;99.90;;;;;;485067;245;27977;-72
2024/02/04 03:27:52;;;;;;;6.33;3.47;;;6.90;99.90;;;;;;485057;245;28061;-71
2024/02/04 03:29:53;;;;;;;3.97;3.57;;;6.90;99.90;;;;;;485101;245;28523;-72
2024/02/04 03:31:54;;;;;;;3.67;3.37;;;6.90;99.90;;;;;;485104;245;28019;-72
2024/02/04 03:33:55;;;;;;;5.70;3.73;;;6.90;99.90;;;;;;485108;245;28163;-71
2024/02/04 03:35:57;;;;;;;4.43;3.70;;;6.90;99.90;;;;;;485016;245;28129;-72
2024/02/04 03:37:58;;;;;;;4.27;3.77;;;6.90;99.90;;;;;;485025;245;27504;-72
2024/02/04 03:39:59;;;;;;;3.70;3.40;;;6.90;99.90;;;;;;484961;245;28094;-72
2024/02/04 03:42:00;;;;;;;4.43;3.70;;;6.90;99.90;;;;;;485107;245;28097;-72
2024/02/04 03:44:02;;;;;;;3.63;3.33;;;6.90;99.90;;;;;;485089;245;28857;-71
2024/02/04 03:46:03;;;;;;;5.03;3.20;;;6.90;99.90;;;;;;485033;245;28550;-72
2024/02/04 03:48:04;;;;;;;3.40;3.10;;;7.00;99.90;;;;;;485108;245;28391;-73
2024/02/04 03:50:05;;;;;;;3.80;3.50;;;7.00;99.90;;;;;;485082;245;28514;-72
2024/02/04 03:52:07;;;;;;;3.87;3.57;;;7.00;99.90;;;;;;485053;245;28447;-72
2024/02/04 03:54:08;;;;;;;3.37;3.07;;;7.00;99.90;;;;;;485092;245;29299;-71
2024/02/04 03:56:09;;;;;;;3.92;3.50;;;7.00;99.90;;;;;;484899;245;27888;-71
2024/02/04 03:58:10;;;;;;;4.37;3.97;;;7.00;99.90;;;;;;485108;245;27510;-73
2024/02/04 04:00:12;;;;;;;4.20;3.80;;;6.90;99.90;;;;;;485096;245;27477;-71
2024/02/04 04:02:13;;;;;;;4.33;3.30;;;7.00;99.90;;;;;;485096;245;27628;-72
2024/02/04 04:04:14;;;;;;;5.27;3.30;;;6.90;99.90;;;;;;485090;245;28831;-71
2024/02/04 04:06:15;;;;;;;4.27;3.20;;;6.90;99.90;;;;;;485099;245;28187;-71
2024/02/04 04:08:18;;;;;;;4.40;3.27;;;6.90;99.90;;;;;;485118;245;28114;-72
2024/02/04 04:10:18;;;;;;;7.47;4.13;;;6.90;99.90;;;;;;484967;245;29297;-71
2024/02/04 04:12:19;;;;;;;3.73;3.40;;;6.90;99.90;;;;;;485064;245;29356;-71
2024/02/04 04:14:20;;;;;;;3.97;3.13;;;6.90;99.90;;;;;;485126;245;28576;-73
2024/02/04 04:16:22;;;;;;;3.53;3.23;;;6.90;99.90;;;;;;485059;245;28527;-71
2024/02/04 04:18:23;;;;;;;3.60;3.03;;;6.90;99.90;;;;;;485107;245;28823;-72
2024/02/04 04:20:24;;;;;;;4.07;3.30;;;6.90;99.90;;;;;;485107;245;27645;-71
2024/02/04 04:22:25;;;;;;;4.20;3.33;;;7.00;99.90;;;;;;485096;245;27537;-72
2024/02/04 04:24:27;;;;;;;3.50;3.20;;;6.90;99.90;;;;;;485140;245;28027;-75
2024/02/04 04:26:28;;;;;;;3.20;2.90;;;7.00;99.90;;;;;;485058;245;27928;-71
2024/02/04 04:28:29;;;;;;;4.23;3.20;;;6.90;99.90;;;;;;485091;245;28121;-72
2024/02/04 04:30:30;;;;;;;3.10;2.80;;;6.90;99.90;;;;;;485100;245;27848;-72
2024/02/04 04:32:32;;;;;;;3.33;3.03;;;6.90;99.90;;;;;;485075;245;28909;-71
2024/02/04 04:34:33;;;;;;;3.13;2.77;;;6.90;99.90;;;;;;485091;245;28024;-72
2024/02/04 04:36:34;;;;;;;2.60;2.40;;;6.90;99.90;;;;;;485067;245;27976;-71
2024/02/04 04:38:35;;;;;;;2.47;2.33;;;6.90;99.90;;;;;;485091;245;27869;-72
2024/02/04 04:40:37;;;;;;;2.87;2.30;;;6.90;99.90;;;;;;485091;245;28169;-71
2024/02/04 04:42:38;;;;;;;2.43;1.90;;;6.90;99.90;;;;;;485102;245;28175;-71
2024/02/04 04:44:40;;;;;;;2.50;2.30;;;6.90;99.90;;;;;;485089;245;29364;-72
2024/02/04 04:46:40;;;;;;;2.10;2.00;;;6.90;99.90;;;;;;485058;245;29393;-71
2024/02/04 04:48:42;;;;;;;2.07;1.97;;;6.90;99.90;;;;;;485055;245;28647;-72
2024/02/04 04:50:43;;;;;;;2.10;2.00;;;6.90;99.90;;;;;;485120;245;27868;-72
2024/02/04 04:52:44;;;;;;;2.40;2.20;;;7.00;99.90;;;;;;485133;245;28857;-72
2024/02/04 04:54:45;;;;;;;1.97;1.87;;;7.00;99.90;;;;;;485141;245;28153;-72
2024/02/04 04:56:47;;;;;;;2.20;2.10;;;6.90;99.90;;;;;;485026;245;28893;-71
2024/02/04 04:58:49;;;;;;;2.10;2.00;;;7.00;99.90;;;;;;485053;245;27853;-72
2024/02/04 05:00:49;;;;;;;2.10;2.00;;;6.90;99.90;;;;;;485005;245;27910;-74
2024/02/04 05:02:50;;;;;;;1.90;1.80;;;6.90;99.90;;;;;;485082;245;27988;-72
2024/02/04 05:04:52;;;;;;;1.77;1.67;;;6.90;99.90;;;;;;485089;245;27684;-72
2024/02/04 05:06:53;;;;;;;2.10;2.00;;;6.90;99.90;;;;;;485052;245;29320;-71
2024/02/04 05:08:54;;;;;;;2.03;1.93;;;7.00;99.90;;;;;;485093;245;27446;-71
2024/02/04 05:10:55;;;;;;;3.30;1.97;;;6.90;99.90;;;;;;485063;245;28064;-72
2024/02/04 05:12:57;;;;;;;2.50;2.30;;;6.90;99.90;;;;;;485079;245;28302;-71
2024/02/04 05:14:58;;;;;;;2.20;2.00;;;6.90;99.90;;;;;;485040;245;28383;-71
2024/02/04 05:16:59;;;;;;;2.10;1.93;;;6.90;99.90;;;;;;484886;245;28911;-72
2024/02/04 05:19:00;;;;;;;2.80;2.33;;;7.00;99.90;;;;;;485091;245;28666;-72
2024/02/04 05:21:02;;;;;;;2.20;2.10;;;7.00;99.90;;;;;;485093;245;28474;-72
2024/02/04 05:23:03;;;;;;;2.40;2.30;;;7.00;99.90;;;;;;485075;245;27969;-71
2024/02/04 05:25:06;;;;;;;2.60;2.40;;;7.00;99.90;;;;;;485061;245;27986;-72
2024/02/04 05:27:05;;;;;;;2.17;2.07;;;7.00;99.90;;;;;;484956;245;27798;-72
2024/02/04 05:29:07;;;;;;;3.07;2.77;;;7.00;99.90;;;;;;485108;245;27876;-71
2024/02/04 05:31:08;;;;;;;2.63;2.43;;;6.90;99.90;;;;;;485057;245;27973;-73
2024/02/04 05:33:09;;;;;;;2.90;2.70;;;6.90;99.90;;;;;;485046;245;28923;-71
2024/02/04 05:35:11;;;;;;;2.47;2.30;;;6.90;99.90;;;;;;485027;245;28010;-72
2024/02/04 05:37:12;;;;;;;2.50;2.40;;;6.90;99.90;;;;;;485018;245;29312;-73
2024/02/04 05:39:13;;;;;;;2.20;2.10;;;6.90;99.90;;;;;;485048;245;28343;-71
2024/02/04 05:41:14;;;;;;;2.63;2.13;;;6.90;99.90;;;;;;485041;245;27772;-71
2024/02/04 05:43:16;;;;;;;2.30;2.20;;;6.90;99.90;;;;;;485038;245;27732;-71
2024/02/04 05:45:17;;;;;;;4.00;2.53;;;6.90;99.90;;;;;;485100;245;28157;-72
2024/02/04 05:47:18;;;;;;;2.27;2.17;;;6.80;99.90;;;;;;485052;245;28590;-72
2024/02/04 05:49:19;;;;;;;2.73;2.37;;;6.80;99.90;;;;;;485093;245;28148;-71
2024/02/04 05:51:21;;;;;;;2.60;2.40;;;6.80;99.90;;;;;;485056;245;28015;-72
2024/02/04 05:53:22;;;;;;;2.13;2.03;;;6.80;99.90;;;;;;485081;245;28094;-71
2024/02/04 05:55:23;;;;;;;2.67;2.47;;;6.80;99.90;;;;;;485076;245;28522;-72
2024/02/04 05:57:24;;;;;;;2.00;1.90;;;6.80;99.90;;;;;;485074;245;27871;-72
2024/02/04 05:59:26;;;;;;;2.53;2.33;;;6.80;99.90;;;;;;485062;245;27489;-72
2024/02/04 06:01:27;;;;;;;2.30;1.83;;;6.80;99.90;;;;;;485062;245;28866;-72
2024/02/04 06:03:28;;;;;;;2.00;1.90;;;6.80;99.90;;;;;;485095;245;28063;-73
2024/02/04 06:05:29;;;;;;;2.27;2.17;;;6.80;99.90;;;;;;485064;245;29416;-72
2024/02/04 06:07:31;;;;;;;1.80;1.70;;;6.80;99.90;;;;;;485077;245;28472;-72
2024/02/04 06:09:32;;;;;;;2.20;2.00;;;6.80;99.90;;;;;;485082;245;27385;-72
2024/02/04 06:11:33;;;;;;;1.93;1.83;;;6.80;99.90;;;;;;485092;245;28120;-72
2024/02/04 06:13:34;;;;;;;2.67;2.47;;;6.80;99.90;;;;;;485103;245;28884;-73
2024/02/04 06:15:36;;;;;;;1.70;1.60;;;6.80;99.90;;;;;;485066;245;28203;-72
2024/02/04 06:17:37;;;;;;;5.00;2.35;;;6.80;99.90;;;;;;485085;245;28042;-71
2024/02/04 06:19:38;;;;;;;2.00;1.90;;;6.80;99.90;;;;;;485083;245;27522;-71
2024/02/04 06:21:39;;;;;;;1.73;1.63;;;6.80;99.90;;;;;;485082;245;27597;-72
2024/02/04 06:23:41;;;;;;;2.33;2.13;;;6.70;99.90;;;;;;485056;245;28915;-72
2024/02/04 06:25:42;;;;;;;2.23;2.03;;;6.70;99.90;;;;;;485029;245;27760;-72
2024/02/04 06:27:43;;;;;;;1.80;1.70;;;6.70;99.90;;;;;;484912;245;27650;-72
2024/02/04 06:29:44;;;;;;;1.80;1.70;;;6.70;99.90;;;;;;485098;245;28900;-73
2024/02/04 06:31:46;;;;;;;2.00;1.90;;;6.70;99.90;;;;;;485059;245;27932;-72
2024/02/04 06:33:47;;;;;;;1.97;1.87;;;6.70;99.90;;;;;;485079;245;29356;-72
2024/02/04 06:35:48;;;;;;;1.93;1.83;;;6.70;99.90;;;;;;485061;245;28920;-71
2024/02/04 06:37:49;;;;;;;2.10;2.00;;;6.70;99.90;;;;;;485088;245;27898;-72
2024/02/04 06:39:51;;;;;;;1.63;1.53;;;6.70;99.90;;;;;;485105;245;28002;-73
2024/02/04 06:41:52;;;;;;;1.93;1.83;;;6.70;99.90;;;;;;485103;245;28830;-72
2024/02/04 06:43:53;;;;;;;1.75;1.65;;;6.70;99.90;;;;;;485093;245;28710;-72
2024/02/04 06:45:54;;;;;;;1.70;1.60;;;6.70;99.90;;;;;;485051;245;27501;-71
2024/02/04 06:47:56;;;;;;;1.40;1.40;;;6.70;99.90;;;;;;485102;245;28841;-72
2024/02/04 06:49:57;;;;;;;2.07;1.50;;;6.80;99.90;;;;;;485094;245;28031;-72
2024/02/04 06:51:58;;;;;;;1.90;1.80;;;6.80;99.90;;;;;;485094;245;28986;-72
2024/02/04 06:54:01;;;;;;;1.80;1.70;;;6.70;99.90;;;;;;485093;245;28106;-71
2024/02/04 06:56:01;;;;;;;1.30;1.27;;;6.80;99.90;;;;;;485008;245;28675;-74
2024/02/04 06:58:02;;;;;;;1.60;1.50;;;6.80;99.90;;;;;;485109;245;28393;-72
2024/02/04 07:00:08;;;;;;;1.80;1.70;;;6.80;99.90;;;;;;485092;245;28273;-73
2024/02/04 07:02:07;;;;;;;1.60;1.50;;;6.80;99.90;;;;;;484998;245;27627;-72
2024/02/04 07:04:09;;;;;;;1.30;1.30;;;6.80;99.90;;;;;;485081;245;28848;-71
2024/02/04 07:06:10;;;;;;;1.70;1.60;;;6.80;99.90;;;;;;485065;245;27667;-71
2024/02/04 07:08:11;;;;;;;1.70;1.60;;;6.80;99.90;;;;;;485097;245;28227;-74
2024/02/04 07:10:12;;;;;;;1.80;1.70;;;6.80;99.90;;;;;;485094;245;29280;-74
2024/02/04 07:12:14;;;;;;;1.53;1.47;;;6.70;99.90;;;;;;485077;245;28543;-72
2024/02/04 07:14:15;;;;;;;1.60;1.50;;;6.70;99.90;;;;;;485089;245;30067;-71
2024/02/04 07:16:16;;;;;;;1.60;1.50;;;6.70;99.90;;;;;;485039;245;29158;-72
2024/02/04 07:18:21;;;;;;;1.30;1.30;;;6.70;99.90;;;;;;485117;245;28107;-72
2024/02/04 07:20:19;;;;;;;1.30;1.30;;;6.80;99.90;;;;;;484784;245;28831;-72
2024/02/04 07:22:20;;;;;;;1.30;1.30;;;6.80;99.90;;;;;;485041;245;28018;-72
2024/02/04 07:24:21;;;;;;;1.70;1.60;;;6.80;99.90;;;;;;485095;245;27976;-71
2024/02/04 07:26:22;;;;;;;1.40;1.30;;;6.80;99.90;;;;;;485044;245;27983;-72
2024/02/04 07:28:24;;;;;;;3.90;1.67;;;6.80;99.90;;;;;;485109;245;28065;-72
2024/02/04 07:30:25;;;;;;;1.50;1.40;;;6.70;99.90;;;;;;485075;245;28485;-72
2024/02/04 07:32:26;;;;;;;1.60;1.50;;;6.80;99.90;;;;;;485070;245;28031;-71
2024/02/04 07:34:27;;;;;;;1.50;1.40;;;6.80;99.90;;;;;;485058;245;27867;-73
2024/02/04 07:36:29;;;;;;;1.50;1.40;;;6.80;99.90;;;;;;485000;245;27936;-72
2024/02/04 07:38:30;;;;;;;1.20;1.20;;;6.80;99.90;;;;;;484989;245;28109;-72
2024/02/04 07:40:31;;;;;;;2.57;2.37;;;6.80;99.90;;;;;;485106;245;27959;-72
2024/02/04 07:42:32;;;;;;;1.60;1.50;;;6.80;99.90;;;;;;485051;245;28377;-72
2024/02/04 07:44:34;;;;;;;1.47;1.47;;;6.80;99.90;;;;;;485115;245;28511;-73
2024/02/04 07:46:35;;;;;;;1.33;1.33;;;6.80;99.90;;;;;;485065;245;28398;-71
2024/02/04 07:48:36;;;;;;;1.83;1.73;;;6.80;99.90;;;;;;485088;245;29349;-72
2024/02/04 07:50:37;;;;;;;1.60;1.50;;;6.90;99.90;;;;;;485077;245;29088;-72
2024/02/04 07:52:39;;;;;;;1.40;1.40;;;6.80;99.90;;;;;;485129;245;27572;-72
2024/02/04 07:54:40;;;;;;;1.60;1.50;;;6.90;99.90;;;;;;485110;245;27869;-72
2024/02/04 07:56:41;;;;;;;1.60;1.50;;;6.90;99.90;;;;;;485038;245;27988;-72
2024/02/04 07:58:42;;;;;;;1.30;1.20;;;6.90;99.90;;;;;;485042;245;27656;-72
2024/02/04 08:00:44;;;;;;;1.70;1.60;;;6.90;99.90;;;;;;485059;245;28539;-71
2024/02/04 08:02:45;;;;;;;1.57;1.47;;;6.90;99.90;;;;;;485129;245;27860;-72
2024/02/04 08:04:46;;;;;;;1.90;1.80;;;6.90;99.90;;;;;;485094;245;28135;-72
2024/02/04 08:06:47;;;;;;;1.40;1.33;;;6.90;99.90;;;;;;485064;245;27745;-72
2024/02/04 08:08:49;;;;;;;2.00;1.90;;;6.90;99.90;;;;;;485098;245;27790;-72
2024/02/04 08:10:50;;;;;;;1.80;1.70;;;6.90;99.90;;;;;;485110;245;28561;-73
2024/02/04 08:12:53;;;;;;;1.70;1.60;;;6.90;99.90;;;;;;485125;245;27738;-72
2024/02/04 08:14:52;;;;;;;1.63;1.53;;;6.80;99.90;;;;;;485018;245;28036;-73
2024/02/04 08:16:54;;;;;;;1.70;1.60;;;6.90;99.90;;;;;;485013;245;28589;-72
2024/02/04 08:18:55;;;;;;;1.57;1.50;;;6.90;99.90;;;;;;485058;245;28466;-72
2024/02/04 08:20:56;;;;;;;1.83;1.73;;;6.90;99.90;;;;;;485104;245;28009;-72
2024/02/04 08:22:57;;;;;;;3.43;1.60;;;6.90;99.90;;;;;;485102;245;28222;-72
2024/02/04 08:24:59;;;;;;;1.87;1.73;;;6.90;99.90;;;;;;485082;245;28609;-72
2024/02/04 08:27:00;;;;;;;1.80;1.70;;;6.80;99.90;;;;;;485011;245;28357;-71
2024/02/04 08:29:01;;;;;;;1.70;1.60;;;6.80;99.90;;;;;;485117;245;28036;-72
2024/02/04 08:31:02;;;;;;;1.77;1.67;;;6.80;99.90;;;;;;485107;245;28008;-72
2024/02/04 08:33:04;;;;;;;5.10;1.70;;;6.80;99.90;;;;;;485095;245;28509;-72
2024/02/04 08:35:05;;;;;;;1.50;1.43;;;6.90;99.90;;;;;;485076;245;27793;-74
2024/02/04 08:37:06;;;;;;;2.30;2.10;;;6.90;99.90;;;;;;485059;245;27946;-72
2024/02/04 08:39:07;;;;;;;1.83;1.73;;;6.90;99.90;;;;;;485120;245;28088;-72
2024/02/04 08:41:09;;;;;;;1.70;1.60;;;6.90;99.90;;;;;;485097;245;28014;-73
2024/02/04 08:43:10;;;;;;;1.97;1.77;;;6.80;99.90;;;;;;485080;245;28035;-71
2024/02/04 08:45:11;;;;;;;1.93;1.80;;;6.80;99.90;;;;;;485072;245;28947;-72
2024/02/04 08:47:14;;;;;;;1.70;1.60;;;6.80;99.90;;;;;;485070;245;28344;-74
2024/02/04 08:49:14;;;;;;;1.73;1.63;;;6.80;99.90;;;;;;485007;245;27731;-71
2024/02/04 08:51:16;;;;;;;1.62;1.50;;;6.90;99.90;;;;;;485091;245;27830;-72
2024/02/04 08:53:16;;;;;;;2.40;1.60;;;6.90;99.90;;;;;;485064;245;28118;-71
2024/02/04 08:55:17;;;;;;;1.93;1.83;;;6.90;99.90;;;;;;485135;245;28236;-72
2024/02/04 08:57:19;;;;;;;2.10;1.90;;;6.90;99.90;;;;;;485091;245;28972;-72
2024/02/04 08:59:20;;;;;;;1.90;1.80;;;6.90;99.90;;;;;;485083;245;28403;-72
2024/02/04 09:01:21;;;;;;;1.80;1.70;;;6.90;99.90;;;;;;485079;245;28043;-72
2024/02/04 09:03:23;;;;;;;1.87;1.77;;;6.90;99.90;;;;;;485033;245;27624;-72
2024/02/04 09:05:24;;;;;;;1.90;1.80;;;6.90;99.90;;;;;;485079;245;27839;-72
2024/02/04 09:07:25;;;;;;;2.80;1.90;;;6.90;99.90;;;;;;485065;245;27958;-72
2024/02/04 09:09:26;;;;;;;1.93;1.83;;;6.90;99.90;;;;;;485048;245;27620;-72
2024/02/04 09:11:27;;;;;;;2.10;2.00;;;6.90;99.90;;;;;;485073;245;27896;-72
2024/02/04 09:13:29;;;;;;;2.20;2.10;;;6.90;99.90;;;;;;485102;245;28170;-74
2024/02/04 09:15:30;;;;;;;2.30;2.20;;;6.90;99.90;;;;;;485025;245;28136;-72
2024/02/04 09:17:33;;;;;;;2.73;2.53;;;6.90;99.90;;;;;;485110;245;28009;-72
2024/02/04 09:19:32;;;;;;;2.60;2.40;;;6.90;99.90;;;;;;484983;245;28404;-72
2024/02/04 09:21:34;;;;;;;3.83;2.43;;;6.80;99.90;;;;;;485077;245;28372;-72
2024/02/04 09:23:35;;;;;;;2.63;2.43;;;6.80;99.90;;;;;;485111;245;28063;-74
2024/02/04 09:25:36;;;;;;;3.40;2.20;;;6.80;99.90;;;;;;485028;245;28819;-72
2024/02/04 09:27:37;;;;;;;2.78;2.58;;;6.90;99.90;;;;;;485077;245;27700;-72
2024/02/04 09:29:39;;;;;;;2.53;2.37;;;6.90;99.90;;;;;;485070;245;27386;-72
2024/02/04 09:31:40;;;;;;;2.73;2.53;;;6.90;99.90;;;;;;485089;245;28132;-71
2024/02/04 09:33:41;;;;;;;2.97;2.77;;;6.90;99.90;;;;;;485096;245;28115;-73
2024/02/04 09:35:43;;;;;;;3.10;2.90;;;6.90;99.90;;;;;;484977;245;28881;-72
2024/02/04 09:37:44;;;;;;;2.60;2.40;;;6.90;99.90;;;;;;485072;245;27999;-72
2024/02/04 09:39:45;;;;;;;2.90;2.57;;;6.90;99.90;;;;;;485080;245;27980;-71
2024/02/04 09:41:46;;;;;;;3.40;2.67;;;7.00;99.90;;;;;;485105;245;27397;-72
2024/02/04 09:43:47;;;;;;;3.97;2.57;;;7.00;99.90;;;;;;485036;245;28476;-72
2024/02/04 09:45:49;;;;;;;2.60;2.40;;;7.00;99.90;;;;;;485021;245;28397;-72
2024/02/04 09:47:50;;;;;;;2.53;2.30;;;7.10;99.90;;;;;;485064;245;28479;-72
2024/02/04 09:49:55;;;;;;;2.60;2.40;;;7.10;99.90;;;;;;485057;245;28526;-74
2024/02/04 09:51:52;;;;;;;2.53;2.33;;;7.10;99.90;;;;;;484730;245;28526;-72
2024/02/04 09:53:54;;;;;;;2.50;2.30;;;7.10;99.90;;;;;;485064;245;28079;-72
2024/02/04 09:55:55;;;;;;;2.00;1.90;;;7.10;99.90;;;;;;484979;245;27977;-72
2024/02/04 09:57:56;;;;;;;2.10;2.00;;;7.10;99.90;;;;;;485059;245;27909;-71
2024/02/04 09:59:57;;;;;;;2.30;2.10;;;7.10;99.90;;;;;;485091;245;28041;-73
2024/02/04 10:01:59;;;;;;;2.23;1.70;;;7.10;99.90;;;;;;485064;245;27864;-71
2024/02/04 10:04:00;;;;;;;2.27;2.07;;;7.10;99.90;;;;;;485043;245;28013;-72
2024/02/04 10:06:01;;;;;;;2.10;1.93;;;7.10;99.90;;;;;;485055;245;27832;-71
2024/02/04 10:08:02;;;;;;;2.10;2.00;;;7.20;99.90;;;;;;485084;245;27773;-72
2024/02/04 10:10:04;;;;;;;2.00;1.90;;;7.10;99.90;;;;;;485088;245;28118;-72
2024/02/04 10:12:05;;;;;;;1.60;1.50;;;7.20;99.90;;;;;;485061;245;27998;-71
2024/02/04 10:14:06;;;;;;;1.70;1.60;;;7.20;99.90;;;;;;485085;245;28057;-71
2024/02/04 10:16:07;;;;;;;1.60;1.50;;;7.20;99.90;;;;;;484876;245;28024;-71
2024/02/04 10:18:09;;;;;;;1.70;1.60;;;7.20;99.90;;;;;;485099;245;28054;-71
2024/02/04 10:20:10;;;;;;;1.70;1.60;;;7.20;99.90;;;;;;484853;245;28091;-72
2024/02/04 10:22:11;;;;;;;1.70;1.60;;;7.20;99.90;;;;;;485021;245;28301;-71
2024/02/04 10:24:12;;;;;;;1.90;1.80;;;7.20;99.90;;;;;;485063;245;28413;-71
2024/02/04 10:26:14;;;;;;;2.07;1.97;;;7.20;99.90;;;;;;485082;245;28752;-75
2024/02/04 10:28:16;;;;;;;3.73;2.37;;;7.20;99.90;;;;;;485095;245;28500;-72
2024/02/04 10:30:16;;;;;;;2.00;1.90;;;7.10;99.90;;;;;;485040;245;28609;-73
2024/02/04 10:32:17;;;;;;;1.80;1.70;;;7.10;99.90;;;;;;485017;245;27856;-72
2024/02/04 10:34:19;;;;;;;2.33;2.17;;;7.20;99.90;;;;;;485054;245;27882;-72
2024/02/04 10:36:20;;;;;;;2.07;1.97;;;7.20;99.90;;;;;;485048;245;27972;-75
2024/02/04 10:38:21;;;;;;;1.70;1.60;;;7.20;99.90;;;;;;485048;245;27849;-72
2024/02/04 10:40:24;;;;;;;1.93;1.83;;;7.20;99.90;;;;;;485009;245;27942;-73